sensor_id;sensor_type;location;lat;lon;timestamp;temperature;humidity
80540;DHT22;69869;48.036;15.780;2024-02-04T00:00:48;12.80;75.70
80540;DHT22;69869;48.036;15.780;2024-02-04T00:03:13;12.80;75.70
80540;DHT22;69869;48.036;15.780;2024-02-04T00:05:39;12.80;75.70
80540;DHT22;69869;48.036;15.780;2024-02-04T00:08:05;12.80;75.70
80540;DHT22;69869;48.036;15.780;2024-02-04T00:10:30;12.80;75.50
80540;DHT22;69869;48.036;15.780;2024-02-04T00:12:56;12.80;75.70
80540;DHT22;69869;48.036;15.780;2024-02-04T00:15:22;12.80;75.50
80540;DHT22;69869;48.036;15.780;2024-02-04T00:17:48;12.80;75.60
80540;DHT22;69869;48.036;15.780;2024-02-04T00:20:13;12.80;76.30
80540;DHT22;69869;48.036;15.780;2024-02-04T00:22:39;12.80;75.60
80540;DHT22;69869;48.036;15.780;2024-02-04T00:25:05;12.80;75.70
80540;DHT22;69869;48.036;15.780;2024-02-04T00:27:31;12.80;75.70
80540;DHT22;69869;48.036;15.780;2024-02-04T00:29:57;12.80;75.70
80540;DHT22;69869;48.036;15.780;2024-02-04T00:32:24;12.80;75.70
80540;DHT22;69869;48.036;15.780;2024-02-04T00:34:50;12.80;75.80
80540;DHT22;69869;48.036;15.780;2024-02-04T00:37:15;12.80;76.00
80540;DHT22;69869;48.036;15.780;2024-02-04T00:39:41;12.80;75.70
80540;DHT22;69869;48.036;15.780;2024-02-04T00:42:07;12.80;75.70
80540;DHT22;69869;48.036;15.780;2024-02-04T00:44:32;12.80;75.70
80540;DHT22;69869;48.036;15.780;2024-02-04T00:46:58;12.80;75.70
80540;DHT22;69869;48.036;15.780;2024-02-04T00:49:23;12.80;75.70
80540;DHT22;69869;48.036;15.780;2024-02-04T00:51:51;12.80;75.70
80540;DHT22;69869;48.036;15.780;2024-02-04T00:54:16;12.80;75.70
80540;DHT22;69869;48.036;15.780;2024-02-04T00:56:42;12.80;75.70
80540;DHT22;69869;48.036;15.780;2024-02-04T00:59:08;12.80;75.70
80540;DHT22;69869;48.036;15.780;2024-02-04T01:01:33;12.80;75.70
80540;DHT22;69869;48.036;15.780;2024-02-04T01:03:59;12.80;75.60
80540;DHT22;69869;48.036;15.780;2024-02-04T01:06:25;12.80;75.50
80540;DHT22;69869;48.036;15.780;2024-02-04T01:08:50;12.80;75.60
80540;DHT22;69869;48.036;15.780;2024-02-04T01:11:16;12.80;75.60
80540;DHT22;69869;48.036;15.780;2024-02-04T01:13:42;12.80;75.70
80540;DHT22;69869;48.036;15.780;2024-02-04T01:16:07;12.80;75.70
80540;DHT22;69869;48.036;15.780;2024-02-04T01:18:33;12.80;75.70
80540;DHT22;69869;48.036;15.780;2024-02-04T01:20:59;12.80;75.70
80540;DHT22;69869;48.036;15.780;2024-02-04T01:23:26;12.80;75.70
80540;DHT22;69869;48.036;15.780;2024-02-04T01:25:51;12.80;75.70
80540;DHT22;69869;48.036;15.780;2024-02-04T01:28:17;12.80;75.50
80540;DHT22;69869;48.036;15.780;2024-02-04T01:30:43;12.80;75.60
80540;DHT22;69869;48.036;15.780;2024-02-04T01:33:08;12.80;75.70
80540;DHT22;69869;48.036;15.780;2024-02-04T01:35:34;12.80;75.70
80540;DHT22;69869;48.036;15.780;2024-02-04T01:37:59;12.80;75.70
80540;DHT22;69869;48.036;15.780;2024-02-04T01:40:25;12.80;75.60
80540;DHT22;69869;48.036;15.780;2024-02-04T01:42:51;12.80;75.60
80540;DHT22;69869;48.036;15.780;2024-02-04T01:45:17;12.80;75.60
80540;DHT22;69869;48.036;15.780;2024-02-04T01:47:43;12.80;75.70
80540;DHT22;69869;48.036;15.780;2024-02-04T01:50:09;12.80;75.70
80540;DHT22;69869;48.036;15.780;2024-02-04T01:52:37;12.80;75.70
80540;DHT22;69869;48.036;15.780;2024-02-04T01:55:05;12.80;75.70
80540;DHT22;69869;48.036;15.780;2024-02-04T01:57:32;12.80;75.70
80540;DHT22;69869;48.036;15.780;2024-02-04T01:59:58;12.80;75.70
80540;DHT22;69869;48.036;15.780;2024-02-04T02:02:25;12.80;76.40
80540;DHT22;69869;48.036;15.780;2024-02-04T02:04:51;12.80;76.30
80540;DHT22;69869;48.036;15.780;2024-02-04T02:07:18;12.80;75.60
80540;DHT22;69869;48.036;15.780;2024-02-04T02:09:46;12.80;75.60
80540;DHT22;69869;48.036;15.780;2024-02-04T02:12:18;12.80;75.60
80540;DHT22;69869;48.036;15.780;2024-02-04T02:14:50;12.80;75.60
80540;DHT22;69869;48.036;15.780;2024-02-04T02:17:27;12.80;75.60
80540;DHT22;69869;48.036;15.780;2024-02-04T02:19:56;12.80;75.50
80540;DHT22;69869;48.036;15.780;2024-02-04T02:22:42;12.80;75.60
80540;DHT22;69869;48.036;15.780;2024-02-04T02:25:11;12.80;75.50
80540;DHT22;69869;48.036;15.780;2024-02-04T02:27:48;12.80;75.70
80540;DHT22;69869;48.036;15.780;2024-02-04T02:30:14;12.80;75.70
80540;DHT22;69869;48.036;15.780;2024-02-04T02:32:42;12.80;75.60
80540;DHT22;69869;48.036;15.780;2024-02-04T02:35:08;12.80;75.70
80540;DHT22;69869;48.036;15.780;2024-02-04T02:37:43;12.80;75.60
80540;DHT22;69869;48.036;15.780;2024-02-04T02:40:34;12.80;75.60
80540;DHT22;69869;48.036;15.780;2024-02-04T02:42:57;12.80;75.70
80540;DHT22;69869;48.036;15.780;2024-02-04T02:45:24;12.80;75.60
80540;DHT22;69869;48.036;15.780;2024-02-04T02:47:53;12.80;75.70
80540;DHT22;69869;48.036;15.780;2024-02-04T02:50:19;12.80;75.70
80540;DHT22;69869;48.036;15.780;2024-02-04T02:52:45;12.80;75.60
80540;DHT22;69869;48.036;15.780;2024-02-04T02:55:11;12.80;75.60
80540;DHT22;69869;48.036;15.780;2024-02-04T02:57:36;12.80;75.60
80540;DHT22;69869;48.036;15.780;2024-02-04T03:00:02;12.80;75.50
80540;DHT22;69869;48.036;15.780;2024-02-04T03:02:31;12.80;75.50
80540;DHT22;69869;48.036;15.780;2024-02-04T03:04:56;12.80;75.60
80540;DHT22;69869;48.036;15.780;2024-02-04T03:07:22;12.80;75.60
80540;DHT22;69869;48.036;15.780;2024-02-04T03:09:48;12.80;75.60
80540;DHT22;69869;48.036;15.780;2024-02-04T03:12:13;12.80;75.60
80540;DHT22;69869;48.036;15.780;2024-02-04T03:14:39;12.80;75.60
80540;DHT22;69869;48.036;15.780;2024-02-04T03:17:04;12.80;75.50
80540;DHT22;69869;48.036;15.780;2024-02-04T03:19:30;12.80;75.60
80540;DHT22;69869;48.036;15.780;2024-02-04T03:21:56;12.80;75.60
80540;DHT22;69869;48.036;15.780;2024-02-04T03:24:21;12.80;75.60
80540;DHT22;69869;48.036;15.780;2024-02-04T03:26:47;12.80;75.70
80540;DHT22;69869;48.036;15.780;2024-02-04T03:29:13;12.80;75.60
80540;DHT22;69869;48.036;15.780;2024-02-04T03:31:38;12.80;75.60
80540;DHT22;69869;48.036;15.780;2024-02-04T03:34:04;12.80;75.60
80540;DHT22;69869;48.036;15.780;2024-02-04T03:36:30;12.80;75.60
80540;DHT22;69869;48.036;15.780;2024-02-04T03:38:56;12.80;75.60
80540;DHT22;69869;48.036;15.780;2024-02-04T03:41:22;12.80;75.60
80540;DHT22;69869;48.036;15.780;2024-02-04T03:43:48;12.80;75.60
80540;DHT22;69869;48.036;15.780;2024-02-04T03:46:17;12.80;75.70
80540;DHT22;69869;48.036;15.780;2024-02-04T03:48:43;12.80;75.60
80540;DHT22;69869;48.036;15.780;2024-02-04T03:51:14;12.80;75.60
80540;DHT22;69869;48.036;15.780;2024-02-04T03:53:40;12.80;75.70
80540;DHT22;69869;48.036;15.780;2024-02-04T03:56:05;12.80;75.70
80540;DHT22;69869;48.036;15.780;2024-02-04T03:58:32;12.80;75.70
80540;DHT22;69869;48.036;15.780;2024-02-04T04:00:58;12.80;75.70
80540;DHT22;69869;48.036;15.780;2024-02-04T04:03:24;12.80;75.60
80540;DHT22;69869;48.036;15.780;2024-02-04T04:05:50;12.80;75.60
80540;DHT22;69869;48.036;15.780;2024-02-04T04:08:16;12.80;75.50
80540;DHT22;69869;48.036;15.780;2024-02-04T04:10:41;12.80;75.70
80540;DHT22;69869;48.036;15.780;2024-02-04T04:13:07;12.80;75.60
80540;DHT22;69869;48.036;15.780;2024-02-04T04:15:33;12.80;75.60
80540;DHT22;69869;48.036;15.780;2024-02-04T04:17:58;12.80;76.30
80540;DHT22;69869;48.036;15.780;2024-02-04T04:20:24;12.80;75.60
80540;DHT22;69869;48.036;15.780;2024-02-04T04:22:49;12.80;75.60
80540;DHT22;69869;48.036;15.780;2024-02-04T04:25:15;12.80;75.70
80540;DHT22;69869;48.036;15.780;2024-02-04T04:27:42;12.80;75.70
80540;DHT22;69869;48.036;15.780;2024-02-04T04:30:08;12.80;75.60
80540;DHT22;69869;48.036;15.780;2024-02-04T04:32:34;12.80;75.60
80540;DHT22;69869;48.036;15.780;2024-02-04T04:35:00;12.80;75.50
80540;DHT22;69869;48.036;15.780;2024-02-04T04:37:25;12.80;75.50
80540;DHT22;69869;48.036;15.780;2024-02-04T04:39:51;12.80;75.40
80540;DHT22;69869;48.036;15.780;2024-02-04T04:42:17;12.80;75.50
80540;DHT22;69869;48.036;15.780;2024-02-04T04:44:42;12.80;75.40
80540;DHT22;69869;48.036;15.780;2024-02-04T04:47:08;12.80;75.50
80540;DHT22;69869;48.036;15.780;2024-02-04T04:49:34;12.80;75.50
80540;DHT22;69869;48.036;15.780;2024-02-04T04:51:59;12.80;75.50
80540;DHT22;69869;48.036;15.780;2024-02-04T04:54:27;12.80;75.50
80540;DHT22;69869;48.036;15.780;2024-02-04T04:56:52;12.90;75.60
80540;DHT22;69869;48.036;15.780;2024-02-04T04:59:18;12.80;75.40
80540;DHT22;69869;48.036;15.780;2024-02-04T05:01:50;12.80;75.40
80540;DHT22;69869;48.036;15.780;2024-02-04T05:04:16;12.80;75.50
80540;DHT22;69869;48.036;15.780;2024-02-04T05:06:44;12.80;75.40
80540;DHT22;69869;48.036;15.780;2024-02-04T05:09:09;12.80;75.60
80540;DHT22;69869;48.036;15.780;2024-02-04T05:11:35;12.80;75.60
80540;DHT22;69869;48.036;15.780;2024-02-04T05:14:01;12.90;75.70
80540;DHT22;69869;48.036;15.780;2024-02-04T05:16:26;12.80;75.60
80540;DHT22;69869;48.036;15.780;2024-02-04T05:18:52;12.80;75.50
80540;DHT22;69869;48.036;15.780;2024-02-04T05:21:18;12.80;75.60
80540;DHT22;69869;48.036;15.780;2024-02-04T05:23:43;12.80;75.70
80540;DHT22;69869;48.036;15.780;2024-02-04T05:26:09;12.90;75.70
80540;DHT22;69869;48.036;15.780;2024-02-04T05:28:34;12.90;75.70
80540;DHT22;69869;48.036;15.780;2024-02-04T05:31:03;12.90;75.70
80540;DHT22;69869;48.036;15.780;2024-02-04T05:33:29;12.80;75.60
80540;DHT22;69869;48.036;15.780;2024-02-04T05:35:54;12.80;75.60
80540;DHT22;69869;48.036;15.780;2024-02-04T05:38:21;12.90;75.80
80540;DHT22;69869;48.036;15.780;2024-02-04T05:40:47;12.90;75.70
80540;DHT22;69869;48.036;15.780;2024-02-04T05:43:12;12.80;75.70
80540;DHT22;69869;48.036;15.780;2024-02-04T05:45:38;12.80;75.30
80540;DHT22;69869;48.036;15.780;2024-02-04T05:48:09;12.90;75.70
80540;DHT22;69869;48.036;15.780;2024-02-04T05:50:35;12.90;75.70
80540;DHT22;69869;48.036;15.780;2024-02-04T05:53:01;12.80;75.70
80540;DHT22;69869;48.036;15.780;2024-02-04T05:55:27;12.90;75.70
80540;DHT22;69869;48.036;15.780;2024-02-04T05:57:52;12.90;75.70
80540;DHT22;69869;48.036;15.780;2024-02-04T06:00:18;12.90;75.70
80540;DHT22;69869;48.036;15.780;2024-02-04T06:02:44;12.90;75.70
80540;DHT22;69869;48.036;15.780;2024-02-04T06:05:13;12.90;75.70
80540;DHT22;69869;48.036;15.780;2024-02-04T06:07:39;12.90;75.70
80540;DHT22;69869;48.036;15.780;2024-02-04T06:10:09;12.90;75.70
80540;DHT22;69869;48.036;15.780;2024-02-04T06:12:35;12.90;75.70
80540;DHT22;69869;48.036;15.780;2024-02-04T06:15:00;12.90;75.70
80540;DHT22;69869;48.036;15.780;2024-02-04T06:17:26;12.80;75.70
80540;DHT22;69869;48.036;15.780;2024-02-04T06:19:51;12.90;75.50
80540;DHT22;69869;48.036;15.780;2024-02-04T06:22:17;12.90;75.70
80540;DHT22;69869;48.036;15.780;2024-02-04T06:24:43;12.90;75.80
80540;DHT22;69869;48.036;15.780;2024-02-04T06:27:08;12.90;75.80
80540;DHT22;69869;48.036;15.780;2024-02-04T06:29:36;12.90;75.90
80540;DHT22;69869;48.036;15.780;2024-02-04T06:32:02;12.90;75.80
80540;DHT22;69869;48.036;15.780;2024-02-04T06:34:28;12.90;75.80
80540;DHT22;69869;48.036;15.780;2024-02-04T06:36:54;12.90;75.80
80540;DHT22;69869;48.036;15.780;2024-02-04T06:39:19;12.90;75.80
80540;DHT22;69869;48.036;15.780;2024-02-04T06:41:45;12.90;75.80
80540;DHT22;69869;48.036;15.780;2024-02-04T06:44:13;12.90;75.80
80540;DHT22;69869;48.036;15.780;2024-02-04T06:46:39;12.90;75.70
80540;DHT22;69869;48.036;15.780;2024-02-04T06:49:05;12.90;75.80
80540;DHT22;69869;48.036;15.780;2024-02-04T06:51:31;12.90;75.80
80540;DHT22;69869;48.036;15.780;2024-02-04T06:53:56;12.90;75.80
80540;DHT22;69869;48.036;15.780;2024-02-04T06:56:22;12.90;75.80
80540;DHT22;69869;48.036;15.780;2024-02-04T06:58:47;12.90;75.90
80540;DHT22;69869;48.036;15.780;2024-02-04T07:01:15;12.90;75.90
80540;DHT22;69869;48.036;15.780;2024-02-04T07:03:40;12.90;75.80
80540;DHT22;69869;48.036;15.780;2024-02-04T07:06:06;12.90;75.80
80540;DHT22;69869;48.036;15.780;2024-02-04T07:08:32;12.90;75.80
80540;DHT22;69869;48.036;15.780;2024-02-04T07:10:58;12.90;75.80
80540;DHT22;69869;48.036;15.780;2024-02-04T07:13:23;12.90;75.80
80540;DHT22;69869;48.036;15.780;2024-02-04T07:15:52;12.90;75.70
80540;DHT22;69869;48.036;15.780;2024-02-04T07:18:19;12.90;75.80
80540;DHT22;69869;48.036;15.780;2024-02-04T07:20:47;12.80;75.80
80540;DHT22;69869;48.036;15.780;2024-02-04T07:23:13;12.90;75.90
80540;DHT22;69869;48.036;15.780;2024-02-04T07:25:39;12.90;75.80
80540;DHT22;69869;48.036;15.780;2024-02-04T07:28:04;12.90;75.70
80540;DHT22;69869;48.036;15.780;2024-02-04T07:30:30;12.90;75.70
80540;DHT22;69869;48.036;15.780;2024-02-04T07:32:55;12.90;75.60
80540;DHT22;69869;48.036;15.780;2024-02-04T07:35:21;12.80;75.70
80540;DHT22;69869;48.036;15.780;2024-02-04T07:37:47;12.80;75.90
80540;DHT22;69869;48.036;15.780;2024-02-04T07:40:13;12.80;76.00
80540;DHT22;69869;48.036;15.780;2024-02-04T07:42:38;12.80;76.00
80540;DHT22;69869;48.036;15.780;2024-02-04T07:45:04;12.70;76.00
80540;DHT22;69869;48.036;15.780;2024-02-04T07:47:34;12.70;76.00
80540;DHT22;69869;48.036;15.780;2024-02-04T07:50:00;12.80;76.10
80540;DHT22;69869;48.036;15.780;2024-02-04T07:52:25;12.80;76.10
80540;DHT22;69869;48.036;15.780;2024-02-04T07:54:51;12.80;76.10
80540;DHT22;69869;48.036;15.780;2024-02-04T07:57:17;12.80;76.10
80540;DHT22;69869;48.036;15.780;2024-02-04T07:59:42;12.80;76.10
80540;DHT22;69869;48.036;15.780;2024-02-04T08:02:08;12.80;76.10
80540;DHT22;69869;48.036;15.780;2024-02-04T08:04:34;12.80;76.20
80540;DHT22;69869;48.036;15.780;2024-02-04T08:06:59;12.70;76.10
80540;DHT22;69869;48.036;15.780;2024-02-04T08:09:25;12.80;76.20
80540;DHT22;69869;48.036;15.780;2024-02-04T08:11:51;12.80;76.20
80540;DHT22;69869;48.036;15.780;2024-02-04T08:14:17;12.80;76.30
80540;DHT22;69869;48.036;15.780;2024-02-04T08:16:43;12.70;76.20
80540;DHT22;69869;48.036;15.780;2024-02-04T08:19:11;12.70;76.20
80540;DHT22;69869;48.036;15.780;2024-02-04T08:21:37;12.80;76.30
80540;DHT22;69869;48.036;15.780;2024-02-04T08:24:03;12.70;76.20
80540;DHT22;69869;48.036;15.780;2024-02-04T08:26:28;12.70;76.20
80540;DHT22;69869;48.036;15.780;2024-02-04T08:28:54;12.70;76.20
80540;DHT22;69869;48.036;15.780;2024-02-04T08:31:20;12.70;76.20
80540;DHT22;69869;48.036;15.780;2024-02-04T08:33:46;12.70;76.20
80540;DHT22;69869;48.036;15.780;2024-02-04T08:36:12;12.70;76.20
80540;DHT22;69869;48.036;15.780;2024-02-04T08:38:37;12.70;76.30
80540;DHT22;69869;48.036;15.780;2024-02-04T08:41:04;12.70;76.30
80540;DHT22;69869;48.036;15.780;2024-02-04T08:43:29;12.70;76.20
80540;DHT22;69869;48.036;15.780;2024-02-04T08:45:55;12.80;76.30
80540;DHT22;69869;48.036;15.780;2024-02-04T08:48:21;12.70;76.20
80540;DHT22;69869;48.036;15.780;2024-02-04T08:50:46;12.80;76.40
80540;DHT22;69869;48.036;15.780;2024-02-04T08:53:12;12.80;76.30
80540;DHT22;69869;48.036;15.780;2024-02-04T08:55:38;12.80;76.30
80540;DHT22;69869;48.036;15.780;2024-02-04T08:58:03;12.70;76.20
80540;DHT22;69869;48.036;15.780;2024-02-04T09:00:29;12.70;76.10
80540;DHT22;69869;48.036;15.780;2024-02-04T09:02:55;12.70;76.10
80540;DHT22;69869;48.036;15.780;2024-02-04T09:05:21;12.70;76.20
80540;DHT22;69869;48.036;15.780;2024-02-04T09:07:46;12.80;76.30
80540;DHT22;69869;48.036;15.780;2024-02-04T09:10:12;12.80;76.30
80540;DHT22;69869;48.036;15.780;2024-02-04T09:12:38;12.80;76.40
80540;DHT22;69869;48.036;15.780;2024-02-04T09:15:04;12.70;76.30
80540;DHT22;69869;48.036;15.780;2024-02-04T09:17:31;12.70;76.30
80540;DHT22;69869;48.036;15.780;2024-02-04T09:19:59;12.70;76.30
80540;DHT22;69869;48.036;15.780;2024-02-04T09:22:24;12.80;76.40
80540;DHT22;69869;48.036;15.780;2024-02-04T09:24:50;12.70;76.30
80540;DHT22;69869;48.036;15.780;2024-02-04T09:27:16;12.80;76.40
80540;DHT22;69869;48.036;15.780;2024-02-04T09:29:41;12.70;76.30
80540;DHT22;69869;48.036;15.780;2024-02-04T09:32:07;12.70;76.30
80540;DHT22;69869;48.036;15.780;2024-02-04T09:34:33;12.70;76.30
80540;DHT22;69869;48.036;15.780;2024-02-04T09:36:59;12.70;76.30
80540;DHT22;69869;48.036;15.780;2024-02-04T09:39:24;12.80;76.40
80540;DHT22;69869;48.036;15.780;2024-02-04T09:41:50;12.70;76.30
80540;DHT22;69869;48.036;15.780;2024-02-04T09:44:17;12.70;76.30
80540;DHT22;69869;48.036;15.780;2024-02-04T09:46:42;12.80;76.40
80540;DHT22;69869;48.036;15.780;2024-02-04T09:49:09;12.70;76.30
80540;DHT22;69869;48.036;15.780;2024-02-04T09:51:34;12.80;76.40
80540;DHT22;69869;48.036;15.780;2024-02-04T09:54:04;12.70;76.30
80540;DHT22;69869;48.036;15.780;2024-02-04T09:56:32;12.70;76.40
80540;DHT22;69869;48.036;15.780;2024-02-04T09:58:58;12.70;76.40
80540;DHT22;69869;48.036;15.780;2024-02-04T10:01:24;12.70;76.40
80540;DHT22;69869;48.036;15.780;2024-02-04T10:03:51;12.70;76.40
80540;DHT22;69869;48.036;15.780;2024-02-04T10:06:17;12.70;76.40
80540;DHT22;69869;48.036;15.780;2024-02-04T10:08:43;12.70;76.40
80540;DHT22;69869;48.036;15.780;2024-02-04T10:11:09;12.70;76.30
80540;DHT22;69869;48.036;15.780;2024-02-04T10:13:45;12.80;76.50
80540;DHT22;69869;48.036;15.780;2024-02-04T10:16:12;12.80;76.50
80540;DHT22;69869;48.036;15.780;2024-02-04T10:18:41;12.80;76.50
80540;DHT22;69869;48.036;15.780;2024-02-04T10:21:15;12.70;76.30
80540;DHT22;69869;48.036;15.780;2024-02-04T10:23:41;12.80;76.40
80540;DHT22;69869;48.036;15.780;2024-02-04T10:26:06;12.70;76.30
80540;DHT22;69869;48.036;15.780;2024-02-04T10:28:32;12.80;76.50
80540;DHT22;69869;48.036;15.780;2024-02-04T10:30:58;12.80;76.40
80540;DHT22;69869;48.036;15.780;2024-02-04T10:33:23;12.70;76.40
80540;DHT22;69869;48.036;15.780;2024-02-04T10:35:49;12.70;76.40
80540;DHT22;69869;48.036;15.780;2024-02-04T10:38:14;12.80;76.60
80540;DHT22;69869;48.036;15.780;2024-02-04T10:40:40;12.70;76.40
80540;DHT22;69869;48.036;15.780;2024-02-04T10:43:07;12.70;76.40
80540;DHT22;69869;48.036;15.780;2024-02-04T10:45:36;12.70;76.40
80540;DHT22;69869;48.036;15.780;2024-02-04T10:48:04;12.70;76.50
80540;DHT22;69869;48.036;15.780;2024-02-04T10:50:34;12.70;76.50
80540;DHT22;69869;48.036;15.780;2024-02-04T10:53:04;12.70;76.50
80540;DHT22;69869;48.036;15.780;2024-02-04T10:55:32;12.70;76.50
80540;DHT22;69869;48.036;15.780;2024-02-04T10:58:02;12.80;76.60
80540;DHT22;69869;48.036;15.780;2024-02-04T11:00:28;12.70;76.40
80540;DHT22;69869;48.036;15.780;2024-02-04T11:02:54;12.80;76.50
80540;DHT22;69869;48.036;15.780;2024-02-04T11:05:21;12.80;76.60
80540;DHT22;69869;48.036;15.780;2024-02-04T11:07:49;12.70;76.40
80540;DHT22;69869;48.036;15.780;2024-02-04T11:10:16;12.70;76.40
80540;DHT22;69869;48.036;15.780;2024-02-04T11:12:45;12.80;76.60
80540;DHT22;69869;48.036;15.780;2024-02-04T11:15:14;12.80;76.60
80540;DHT22;69869;48.036;15.780;2024-02-04T11:20:56;12.80;76.70
80540;DHT22;69869;48.036;15.780;2024-02-04T11:26:15;12.70;76.60
80540;DHT22;69869;48.036;15.780;2024-02-04T11:28:42;12.80;76.70
80540;DHT22;69869;48.036;15.780;2024-02-04T11:31:34;12.70;76.50
80540;DHT22;69869;48.036;15.780;2024-02-04T11:34:00;12.80;76.70
80540;DHT22;69869;48.036;15.780;2024-02-04T11:36:26;12.80;76.70
80540;DHT22;69869;48.036;15.780;2024-02-04T11:38:52;12.80;76.60
80540;DHT22;69869;48.036;15.780;2024-02-04T11:41:24;12.70;76.50
80540;DHT22;69869;48.036;15.780;2024-02-04T11:43:57;12.80;76.70
80540;DHT22;69869;48.036;15.780;2024-02-04T11:46:29;12.80;76.70
80540;DHT22;69869;48.036;15.780;2024-02-04T11:48:55;12.80;76.70
80540;DHT22;69869;48.036;15.780;2024-02-04T11:51:24;12.70;76.50
80540;DHT22;69869;48.036;15.780;2024-02-04T11:53:51;12.70;76.50
80540;DHT22;69869;48.036;15.780;2024-02-04T11:56:20;12.80;76.70
80540;DHT22;69869;48.036;15.780;2024-02-04T11:58:46;12.80;76.70
80540;DHT22;69869;48.036;15.780;2024-02-04T12:01:12;12.80;76.60
80540;DHT22;69869;48.036;15.780;2024-02-04T12:03:38;12.80;76.70
80540;DHT22;69869;48.036;15.780;2024-02-04T12:06:04;12.80;76.70
80540;DHT22;69869;48.036;15.780;2024-02-04T12:08:32;12.80;76.70
80540;DHT22;69869;48.036;15.780;2024-02-04T12:10:59;12.80;76.70
80540;DHT22;69869;48.036;15.780;2024-02-04T12:13:28;12.70;76.60
80540;DHT22;69869;48.036;15.780;2024-02-04T12:15:53;12.70;76.50
80540;DHT22;69869;48.036;15.780;2024-02-04T12:18:19;12.80;76.80
80540;DHT22;69869;48.036;15.780;2024-02-04T12:20:47;12.80;76.80
80540;DHT22;69869;48.036;15.780;2024-02-04T12:23:16;12.80;76.70
80540;DHT22;69869;48.036;15.780;2024-02-04T12:25:42;12.80;76.70
80540;DHT22;69869;48.036;15.780;2024-02-04T12:28:08;12.80;76.70
80540;DHT22;69869;48.036;15.780;2024-02-04T12:30:34;12.80;76.70
80540;DHT22;69869;48.036;15.780;2024-02-04T12:33:01;12.80;76.70
80540;DHT22;69869;48.036;15.780;2024-02-04T12:35:28;12.70;76.60
80540;DHT22;69869;48.036;15.780;2024-02-04T12:37:55;12.80;77.10
80540;DHT22;69869;48.036;15.780;2024-02-04T12:42:59;12.80;76.80
80540;DHT22;69869;48.036;15.780;2024-02-04T12:45:27;12.70;76.60
80540;DHT22;69869;48.036;15.780;2024-02-04T12:47:54;12.80;76.80
80540;DHT22;69869;48.036;15.780;2024-02-04T12:50:20;12.80;76.80
80540;DHT22;69869;48.036;15.780;2024-02-04T12:52:47;12.80;76.70
80540;DHT22;69869;48.036;15.780;2024-02-04T12:55:23;12.70;76.70
80540;DHT22;69869;48.036;15.780;2024-02-04T12:57:49;12.80;76.80
80540;DHT22;69869;48.036;15.780;2024-02-04T13:00:18;12.80;76.80
80540;DHT22;69869;48.036;15.780;2024-02-04T13:02:44;12.80;76.80
80540;DHT22;69869;48.036;15.780;2024-02-04T13:05:10;12.80;76.80
80540;DHT22;69869;48.036;15.780;2024-02-04T13:07:36;12.70;76.70
80540;DHT22;69869;48.036;15.780;2024-02-04T13:10:02;12.80;76.80
80540;DHT22;69869;48.036;15.780;2024-02-04T13:12:28;12.70;76.70
80540;DHT22;69869;48.036;15.780;2024-02-04T13:14:54;12.70;76.70
80540;DHT22;69869;48.036;15.780;2024-02-04T13:17:19;12.70;76.60
80540;DHT22;69869;48.036;15.780;2024-02-04T13:19:45;12.80;76.80
80540;DHT22;69869;48.036;15.780;2024-02-04T13:22:10;12.80;76.80
80540;DHT22;69869;48.036;15.780;2024-02-04T13:24:37;12.80;76.80
80540;DHT22;69869;48.036;15.780;2024-02-04T13:27:03;12.80;76.80
80540;DHT22;69869;48.036;15.780;2024-02-04T13:29:30;12.80;76.80
80540;DHT22;69869;48.036;15.780;2024-02-04T13:31:55;12.70;76.80
80540;DHT22;69869;48.036;15.780;2024-02-04T13:34:21;12.70;76.80
80540;DHT22;69869;48.036;15.780;2024-02-04T13:36:47;12.80;76.90
80540;DHT22;69869;48.036;15.780;2024-02-04T13:39:13;12.80;76.90
80540;DHT22;69869;48.036;15.780;2024-02-04T13:41:40;12.80;76.90
80540;DHT22;69869;48.036;15.780;2024-02-04T13:44:05;12.80;76.90
80540;DHT22;69869;48.036;15.780;2024-02-04T13:46:32;12.80;76.80
80540;DHT22;69869;48.036;15.780;2024-02-04T13:48:57;12.80;76.80
80540;DHT22;69869;48.036;15.780;2024-02-04T13:51:23;12.70;76.70
80540;DHT22;69869;48.036;15.780;2024-02-04T13:53:49;12.80;76.90
80540;DHT22;69869;48.036;15.780;2024-02-04T13:56:14;12.80;76.90
80540;DHT22;69869;48.036;15.780;2024-02-04T13:58:43;12.80;77.00
80540;DHT22;69869;48.036;15.780;2024-02-04T14:01:09;12.80;76.90
80540;DHT22;69869;48.036;15.780;2024-02-04T14:03:35;12.80;77.00
80540;DHT22;69869;48.036;15.780;2024-02-04T14:06:01;12.80;76.90
80540;DHT22;69869;48.036;15.780;2024-02-04T14:08:29;12.80;76.80
80540;DHT22;69869;48.036;15.780;2024-02-04T14:10:55;12.70;76.80
80540;DHT22;69869;48.036;15.780;2024-02-04T14:13:20;12.80;76.90
80540;DHT22;69869;48.036;15.780;2024-02-04T14:15:46;12.80;76.90
80540;DHT22;69869;48.036;15.780;2024-02-04T14:18:11;12.80;76.90
80540;DHT22;69869;48.036;15.780;2024-02-04T14:20:37;12.70;76.80
80540;DHT22;69869;48.036;15.780;2024-02-04T14:23:03;12.70;76.90
80540;DHT22;69869;48.036;15.780;2024-02-04T14:25:28;12.80;76.90
80540;DHT22;69869;48.036;15.780;2024-02-04T14:27:54;12.80;76.90
80540;DHT22;69869;48.036;15.780;2024-02-04T14:30:20;12.70;76.80
80540;DHT22;69869;48.036;15.780;2024-02-04T14:32:45;12.70;76.80
80540;DHT22;69869;48.036;15.780;2024-02-04T14:35:11;12.70;76.80
80540;DHT22;69869;48.036;15.780;2024-02-04T14:37:37;12.80;76.90
80540;DHT22;69869;48.036;15.780;2024-02-04T14:40:05;12.80;77.00
80540;DHT22;69869;48.036;15.780;2024-02-04T14:42:32;12.80;77.00
80540;DHT22;69869;48.036;15.780;2024-02-04T14:44:58;12.80;77.00
80540;DHT22;69869;48.036;15.780;2024-02-04T14:47:26;12.80;77.00
80540;DHT22;69869;48.036;15.780;2024-02-04T14:49:53;12.80;77.00
80540;DHT22;69869;48.036;15.780;2024-02-04T14:52:18;12.80;77.00
80540;DHT22;69869;48.036;15.780;2024-02-04T14:54:44;12.80;77.00
80540;DHT22;69869;48.036;15.780;2024-02-04T14:57:10;12.80;77.00
80540;DHT22;69869;48.036;15.780;2024-02-04T14:59:35;12.80;77.00
80540;DHT22;69869;48.036;15.780;2024-02-04T15:02:03;12.80;77.00
80540;DHT22;69869;48.036;15.780;2024-02-04T15:04:33;12.80;77.00
80540;DHT22;69869;48.036;15.780;2024-02-04T15:06:59;12.80;77.00
80540;DHT22;69869;48.036;15.780;2024-02-04T15:09:31;12.80;77.00
80540;DHT22;69869;48.036;15.780;2024-02-04T15:11:57;12.80;77.00
80540;DHT22;69869;48.036;15.780;2024-02-04T15:14:23;12.80;77.00
80540;DHT22;69869;48.036;15.780;2024-02-04T15:16:49;12.80;77.00
80540;DHT22;69869;48.036;15.780;2024-02-04T15:19:16;12.80;77.00